sensor_id;sensor_type;location;lat;lon;timestamp;temperature;humidity
53643;DHT22;39546;45.534;12.048;2022-07-01T00:03:19;29.30;65.70
53643;DHT22;39546;45.534;12.048;2022-07-01T00:09:21;29.30;66.20
53643;DHT22;39546;45.534;12.048;2022-07-01T00:15:24;29.30;66.30
53643;DHT22;39546;45.534;12.048;2022-07-01T00:21:26;29.30;66.10
53643;DHT22;39546;45.534;12.048;2022-07-01T00:27:29;29.30;66.10
53643;DHT22;39546;45.534;12.048;2022-07-01T00:33:31;29.10;66.60
53643;DHT22;39546;45.534;12.048;2022-07-01T00:46:17;29.00;66.90
53643;DHT22;39546;45.534;12.048;2022-07-01T00:52:20;29.00;66.80
53643;DHT22;39546;45.534;12.048;2022-07-01T00:58:25;29.10;66.80
53643;DHT22;39546;45.534;12.048;2022-07-01T01:04:27;29.00;67.20
53643;DHT22;39546;45.534;12.048;2022-07-01T01:10:30;29.00;67.20
53643;DHT22;39546;45.534;12.048;2022-07-01T01:16:33;28.90;67.30
53643;DHT22;39546;45.534;12.048;2022-07-01T01:22:37;28.90;67.60
53643;DHT22;39546;45.534;12.048;2022-07-01T01:28:40;28.90;67.50
53643;DHT22;39546;45.534;12.048;2022-07-01T01:34:42;28.80;67.40
53643;DHT22;39546;45.534;12.048;2022-07-01T01:40:45;28.80;67.40
53643;DHT22;39546;45.534;12.048;2022-07-01T01:47:05;28.70;67.90
53643;DHT22;39546;45.534;12.048;2022-07-01T01:53:07;28.70;68.10
53643;DHT22;39546;45.534;12.048;2022-07-01T01:59:09;28.60;68.00
53643;DHT22;39546;45.534;12.048;2022-07-01T02:05:14;28.50;68.00
53643;DHT22;39546;45.534;12.048;2022-07-01T02:11:17;28.40;68.00
53643;DHT22;39546;45.534;12.048;2022-07-01T02:17:19;28.30;68.00
53643;DHT22;39546;45.534;12.048;2022-07-01T02:23:25;28.40;67.90
53643;DHT22;39546;45.534;12.048;2022-07-01T02:29:27;28.40;68.20
53643;DHT22;39546;45.534;12.048;2022-07-01T02:35:29;28.40;68.30
53643;DHT22;39546;45.534;12.048;2022-07-01T02:41:32;28.40;68.20
53643;DHT22;39546;45.534;12.048;2022-07-01T02:47:54;28.40;68.20
53643;DHT22;39546;45.534;12.048;2022-07-01T02:53:56;28.40;68.40
53643;DHT22;39546;45.534;12.048;2022-07-01T02:59:58;28.30;68.60
53643;DHT22;39546;45.534;12.048;2022-07-01T03:06:00;28.30;68.70
53643;DHT22;39546;45.534;12.048;2022-07-01T03:12:02;28.30;69.00
53643;DHT22;39546;45.534;12.048;2022-07-01T03:18:25;28.30;69.20
53643;DHT22;39546;45.534;12.048;2022-07-01T03:24:27;28.20;69.50
53643;DHT22;39546;45.534;12.048;2022-07-01T03:30:49;28.10;69.70
53643;DHT22;39546;45.534;12.048;2022-07-01T03:37:05;28.10;69.60
53643;DHT22;39546;45.534;12.048;2022-07-01T03:43:07;28.10;69.60
53643;DHT22;39546;45.534;12.048;2022-07-01T03:49:10;28.10;69.40
53643;DHT22;39546;45.534;12.048;2022-07-01T03:55:14;28.10;69.50
53643;DHT22;39546;45.534;12.048;2022-07-01T04:01:16;28.00;69.70
53643;DHT22;39546;45.534;12.048;2022-07-01T04:07:18;27.90;69.80
53643;DHT22;39546;45.534;12.048;2022-07-01T04:13:21;27.90;69.70
53643;DHT22;39546;45.534;12.048;2022-07-01T04:19:40;28.00;69.70
53643;DHT22;39546;45.534;12.048;2022-07-01T04:25:42;27.90;69.80
53643;DHT22;39546;45.534;12.048;2022-07-01T04:31:44;27.90;70.00
53643;DHT22;39546;45.534;12.048;2022-07-01T04:37:46;27.90;70.00
53643;DHT22;39546;45.534;12.048;2022-07-01T04:44:01;28.00;69.90
53643;DHT22;39546;45.534;12.048;2022-07-01T04:50:03;28.00;69.80
53643;DHT22;39546;45.534;12.048;2022-07-01T04:56:07;27.90;69.90
53643;DHT22;39546;45.534;12.048;2022-07-01T05:02:08;28.00;70.10
53643;DHT22;39546;45.534;12.048;2022-07-01T05:08:14;27.80;70.60
53643;DHT22;39546;45.534;12.048;2022-07-01T05:14:15;27.90;70.70
53643;DHT22;39546;45.534;12.048;2022-07-01T05:20:17;27.90;70.70
53643;DHT22;39546;45.534;12.048;2022-07-01T05:26:44;28.10;70.50
53643;DHT22;39546;45.534;12.048;2022-07-01T05:32:46;28.10;70.40
53643;DHT22;39546;45.534;12.048;2022-07-01T05:38:48;28.20;70.30
53643;DHT22;39546;45.534;12.048;2022-07-01T05:44:50;28.30;70.30
53643;DHT22;39546;45.534;12.048;2022-07-01T05:50:53;28.20;70.60
53643;DHT22;39546;45.534;12.048;2022-07-01T05:56:55;28.30;70.90
53643;DHT22;39546;45.534;12.048;2022-07-01T06:02:58;28.30;70.90
53643;DHT22;39546;45.534;12.048;2022-07-01T06:09:00;28.30;70.80
53643;DHT22;39546;45.534;12.048;2022-07-01T06:15:02;28.50;70.60
53643;DHT22;39546;45.534;12.048;2022-07-01T06:21:06;28.70;70.60
53643;DHT22;39546;45.534;12.048;2022-07-01T06:27:18;28.70;70.60
53643;DHT22;39546;45.534;12.048;2022-07-01T06:33:20;28.80;70.40
53643;DHT22;39546;45.534;12.048;2022-07-01T06:39:22;29.00;69.90
53643;DHT22;39546;45.534;12.048;2022-07-01T06:45:24;29.20;69.50
53643;DHT22;39546;45.534;12.048;2022-07-01T06:51:26;29.20;69.50
53643;DHT22;39546;45.534;12.048;2022-07-01T06:57:29;29.30;69.20
53643;DHT22;39546;45.534;12.048;2022-07-01T07:03:31;29.50;68.80
53643;DHT22;39546;45.534;12.048;2022-07-01T07:09:45;29.60;68.50
53643;DHT22;39546;45.534;12.048;2022-07-01T07:16:12;29.70;68.10
53643;DHT22;39546;45.534;12.048;2022-07-01T07:22:14;29.80;67.50
53643;DHT22;39546;45.534;12.048;2022-07-01T07:28:16;30.00;67.10
53643;DHT22;39546;45.534;12.048;2022-07-01T07:34:18;30.00;65.90
53643;DHT22;39546;45.534;12.048;2022-07-01T07:41:01;30.10;65.50
53643;DHT22;39546;45.534;12.048;2022-07-01T07:53:56;30.30;64.00
53643;DHT22;39546;45.534;12.048;2022-07-01T07:59:58;30.50;63.90
53643;DHT22;39546;45.534;12.048;2022-07-01T08:06:00;30.70;63.50
53643;DHT22;39546;45.534;12.048;2022-07-01T08:12:03;30.70;62.70
53643;DHT22;39546;45.534;12.048;2022-07-01T08:18:06;30.60;62.70
53643;DHT22;39546;45.534;12.048;2022-07-01T08:24:08;30.50;62.90
53643;DHT22;39546;45.534;12.048;2022-07-01T08:30:10;30.50;62.80
53643;DHT22;39546;45.534;12.048;2022-07-01T08:36:12;30.40;62.80
53643;DHT22;39546;45.534;12.048;2022-07-01T08:42:16;30.70;62.50
53643;DHT22;39546;45.534;12.048;2022-07-01T08:48:19;30.90;61.80
53643;DHT22;39546;45.534;12.048;2022-07-01T08:54:21;31.10;60.90
53643;DHT22;39546;45.534;12.048;2022-07-01T09:00:32;31.20;60.20
53643;DHT22;39546;45.534;12.048;2022-07-01T09:06:35;31.40;59.90
53643;DHT22;39546;45.534;12.048;2022-07-01T09:12:42;31.60;59.60
53643;DHT22;39546;45.534;12.048;2022-07-01T09:19:02;31.70;59.60
53643;DHT22;39546;45.534;12.048;2022-07-01T09:25:13;31.80;59.40
53643;DHT22;39546;45.534;12.048;2022-07-01T09:31:16;31.80;58.90
53643;DHT22;39546;45.534;12.048;2022-07-01T09:37:36;32.00;58.70
53643;DHT22;39546;45.534;12.048;2022-07-01T09:43:38;32.30;58.20
53643;DHT22;39546;45.534;12.048;2022-07-01T09:49:41;32.10;58.80
53643;DHT22;39546;45.534;12.048;2022-07-01T09:55:43;32.30;58.10
53643;DHT22;39546;45.534;12.048;2022-07-01T10:01:45;32.40;57.80
53643;DHT22;39546;45.534;12.048;2022-07-01T10:15:22;32.40;57.30
53643;DHT22;39546;45.534;12.048;2022-07-01T10:21:30;32.30;57.80
53643;DHT22;39546;45.534;12.048;2022-07-01T10:28:42;32.10;57.80
53643;DHT22;39546;45.534;12.048;2022-07-01T10:34:47;32.00;57.90
53643;DHT22;39546;45.534;12.048;2022-07-01T10:40:54;32.00;58.00
53643;DHT22;39546;45.534;12.048;2022-07-01T10:47:05;32.00;57.90
53643;DHT22;39546;45.534;12.048;2022-07-01T10:53:49;32.20;57.70
53643;DHT22;39546;45.534;12.048;2022-07-01T11:06:22;32.90;56.50
53643;DHT22;39546;45.534;12.048;2022-07-01T11:12:28;33.30;56.70
53643;DHT22;39546;45.534;12.048;2022-07-01T11:18:31;33.50;56.00
53643;DHT22;39546;45.534;12.048;2022-07-01T11:24:35;33.50;55.80
53643;DHT22;39546;45.534;12.048;2022-07-01T11:30:38;33.60;55.60
53643;DHT22;39546;45.534;12.048;2022-07-01T11:36:43;33.90;55.30
53643;DHT22;39546;45.534;12.048;2022-07-01T11:43:26;33.80;55.40
53643;DHT22;39546;45.534;12.048;2022-07-01T11:49:29;33.70;55.40
53643;DHT22;39546;45.534;12.048;2022-07-01T11:55:31;34.10;54.90
53643;DHT22;39546;45.534;12.048;2022-07-01T12:01:35;34.40;54.40
53643;DHT22;39546;45.534;12.048;2022-07-01T12:07:38;34.70;54.20
53643;DHT22;39546;45.534;12.048;2022-07-01T12:13:40;34.90;53.70
53643;DHT22;39546;45.534;12.048;2022-07-01T12:19:44;35.00;53.80
53643;DHT22;39546;45.534;12.048;2022-07-01T12:25:50;35.50;53.30
53643;DHT22;39546;45.534;12.048;2022-07-01T12:32:01;35.60;53.20
53643;DHT22;39546;45.534;12.048;2022-07-01T12:38:03;35.60;53.00
53643;DHT22;39546;45.534;12.048;2022-07-01T12:44:26;35.80;52.50
53643;DHT22;39546;45.534;12.048;2022-07-01T12:50:30;35.50;53.20
53643;DHT22;39546;45.534;12.048;2022-07-01T12:56:33;35.60;53.10
53643;DHT22;39546;45.534;12.048;2022-07-01T13:02:35;35.60;52.90
53643;DHT22;39546;45.534;12.048;2022-07-01T13:08:37;35.40;52.90
53643;DHT22;39546;45.534;12.048;2022-07-01T13:14:40;35.60;52.20
53643;DHT22;39546;45.534;12.048;2022-07-01T13:20:43;35.40;52.10
53643;DHT22;39546;45.534;12.048;2022-07-01T13:26:46;35.10;52.40
53643;DHT22;39546;45.534;12.048;2022-07-01T13:32:48;34.70;53.00
53643;DHT22;39546;45.534;12.048;2022-07-01T13:38:54;34.40;53.50
53643;DHT22;39546;45.534;12.048;2022-07-01T13:44:56;34.30;53.80
53643;DHT22;39546;45.534;12.048;2022-07-01T13:50:59;34.60;53.50
53643;DHT22;39546;45.534;12.048;2022-07-01T13:57:01;34.60;53.30
53643;DHT22;39546;45.534;12.048;2022-07-01T14:03:03;34.30;53.80
53643;DHT22;39546;45.534;12.048;2022-07-01T14:09:05;34.10;54.30
53643;DHT22;39546;45.534;12.048;2022-07-01T14:15:07;33.80;54.70
53643;DHT22;39546;45.534;12.048;2022-07-01T14:21:10;33.70;55.10
53643;DHT22;39546;45.534;12.048;2022-07-01T14:27:13;33.40;55.50
53643;DHT22;39546;45.534;12.048;2022-07-01T14:33:16;33.20;56.20
53643;DHT22;39546;45.534;12.048;2022-07-01T14:39:18;33.00;56.80
53643;DHT22;39546;45.534;12.048;2022-07-01T14:45:20;32.90;57.20
53643;DHT22;39546;45.534;12.048;2022-07-01T14:51:23;32.70;57.90
53643;DHT22;39546;45.534;12.048;2022-07-01T14:57:26;32.40;58.70
53643;DHT22;39546;45.534;12.048;2022-07-01T15:03:28;32.00;59.30
53643;DHT22;39546;45.534;12.048;2022-07-01T15:09:30;31.70;60.30
53643;DHT22;39546;45.534;12.048;2022-07-01T15:15:38;31.10;61.50
53643;DHT22;39546;45.534;12.048;2022-07-01T15:21:56;30.90;62.00
53643;DHT22;39546;45.534;12.048;2022-07-01T15:27:58;30.80;62.20
53643;DHT22;39546;45.534;12.048;2022-07-01T15:34:00;30.80;62.60
53643;DHT22;39546;45.534;12.048;2022-07-01T15:40:04;30.70;62.90
53643;DHT22;39546;45.534;12.048;2022-07-01T15:46:07;30.40;63.60
53643;DHT22;39546;45.534;12.048;2022-07-01T15:52:09;30.30;64.20
53643;DHT22;39546;45.534;12.048;2022-07-01T15:58:13;30.30;64.40
53643;DHT22;39546;45.534;12.048;2022-07-01T16:04:16;30.20;64.60
53643;DHT22;39546;45.534;12.048;2022-07-01T16:16:56;30.40;64.30
53643;DHT22;39546;45.534;12.048;2022-07-01T16:22:59;30.40;64.80
53643;DHT22;39546;45.534;12.048;2022-07-01T16:29:03;30.30;65.40
53643;DHT22;39546;45.534;12.048;2022-07-01T16:35:07;30.60;65.00
53643;DHT22;39546;45.534;12.048;2022-07-01T16:47:50;30.80;64.10
53643;DHT22;39546;45.534;12.048;2022-07-01T16:53:55;30.90;63.90
53643;DHT22;39546;45.534;12.048;2022-07-01T16:59:57;31.00;63.90
53643;DHT22;39546;45.534;12.048;2022-07-01T17:06:00;31.30;63.50
53643;DHT22;39546;45.534;12.048;2022-07-01T17:12:02;31.40;63.60
53643;DHT22;39546;45.534;12.048;2022-07-01T17:18:04;31.40;63.70
53643;DHT22;39546;45.534;12.048;2022-07-01T17:24:09;31.50;63.70
53643;DHT22;39546;45.534;12.048;2022-07-01T17:30:53;31.60;63.70
53643;DHT22;39546;45.534;12.048;2022-07-01T17:37:01;31.60;63.80
53643;DHT22;39546;45.534;12.048;2022-07-01T17:43:05;31.60;64.20
53643;DHT22;39546;45.534;12.048;2022-07-01T17:49:07;31.60;64.20
53643;DHT22;39546;45.534;12.048;2022-07-01T17:55:10;31.80;63.90
53643;DHT22;39546;45.534;12.048;2022-07-01T18:01:14;32.80;62.00
53643;DHT22;39546;45.534;12.048;2022-07-01T18:07:17;33.30;61.20
53643;DHT22;39546;45.534;12.048;2022-07-01T18:13:34;32.60;62.20
53643;DHT22;39546;45.534;12.048;2022-07-01T18:26:11;31.50;63.90
53643;DHT22;39546;45.534;12.048;2022-07-01T18:32:15;31.30;64.10
53643;DHT22;39546;45.534;12.048;2022-07-01T18:38:18;31.10;64.30
53643;DHT22;39546;45.534;12.048;2022-07-01T18:44:20;30.90;64.30
53643;DHT22;39546;45.534;12.048;2022-07-01T18:50:23;30.80;64.50
53643;DHT22;39546;45.534;12.048;2022-07-01T19:03:24;30.50;64.50
53643;DHT22;39546;45.534;12.048;2022-07-01T19:16:02;30.30;64.90
53643;DHT22;39546;45.534;12.048;2022-07-01T19:22:05;30.20;65.00
53643;DHT22;39546;45.534;12.048;2022-07-01T19:28:08;30.00;65.20
53643;DHT22;39546;45.534;12.048;2022-07-01T19:34:10;29.90;65.30
53643;DHT22;39546;45.534;12.048;2022-07-01T19:40:12;29.80;65.30
53643;DHT22;39546;45.534;12.048;2022-07-01T19:46:15;29.80;65.40
53643;DHT22;39546;45.534;12.048;2022-07-01T19:52:17;29.80;65.30
53643;DHT22;39546;45.534;12.048;2022-07-01T19:58:19;29.70;65.40
53643;DHT22;39546;45.534;12.048;2022-07-01T20:04:22;29.60;65.50
53643;DHT22;39546;45.534;12.048;2022-07-01T20:10:25;29.60;65.40
53643;DHT22;39546;45.534;12.048;2022-07-01T20:16:27;29.50;65.50
53643;DHT22;39546;45.534;12.048;2022-07-01T20:22:31;29.40;65.70
53643;DHT22;39546;45.534;12.048;2022-07-01T20:28:32;29.30;65.80
53643;DHT22;39546;45.534;12.048;2022-07-01T20:34:48;29.30;66.00
53643;DHT22;39546;45.534;12.048;2022-07-01T20:40:52;29.30;66.00
53643;DHT22;39546;45.534;12.048;2022-07-01T20:46:54;29.10;66.20
53643;DHT22;39546;45.534;12.048;2022-07-01T20:52:56;29.00;66.30
53643;DHT22;39546;45.534;12.048;2022-07-01T20:59:06;29.00;66.30
53643;DHT22;39546;45.534;12.048;2022-07-01T21:05:11;28.90;66.20
53643;DHT22;39546;45.534;12.048;2022-07-01T21:11:14;28.90;66.20
53643;DHT22;39546;45.534;12.048;2022-07-01T21:17:16;28.80;66.50
53643;DHT22;39546;45.534;12.048;2022-07-01T21:23:18;28.60;66.80
53643;DHT22;39546;45.534;12.048;2022-07-01T21:29:20;28.50;67.00
53643;DHT22;39546;45.534;12.048;2022-07-01T21:35:22;28.40;67.20
53643;DHT22;39546;45.534;12.048;2022-07-01T21:41:25;28.30;67.30
53643;DHT22;39546;45.534;12.048;2022-07-01T21:47:30;28.30;67.40
53643;DHT22;39546;45.534;12.048;2022-07-01T21:53:34;28.30;67.50
53643;DHT22;39546;45.534;12.048;2022-07-01T21:59:40;28.20;67.60
53643;DHT22;39546;45.534;12.048;2022-07-01T22:05:44;28.00;67.80
53643;DHT22;39546;45.534;12.048;2022-07-01T22:12:08;28.00;67.90
53643;DHT22;39546;45.534;12.048;2022-07-01T22:18:12;27.80;68.00
53643;DHT22;39546;45.534;12.048;2022-07-01T22:24:17;27.80;68.20
53643;DHT22;39546;45.534;12.048;2022-07-01T22:30:46;27.80;68.30
53643;DHT22;39546;45.534;12.048;2022-07-01T22:36:48;27.60;68.40
53643;DHT22;39546;45.534;12.048;2022-07-01T22:42:51;27.60;68.50
53643;DHT22;39546;45.534;12.048;2022-07-01T23:01:45;27.60;68.30
53643;DHT22;39546;45.534;12.048;2022-07-01T23:07:54;27.60;68.40
53643;DHT22;39546;45.534;12.048;2022-07-01T23:14:19;27.40;68.60
53643;DHT22;39546;45.534;12.048;2022-07-01T23:20:40;27.40;68.60
53643;DHT22;39546;45.534;12.048;2022-07-01T23:26:47;27.30;68.60
53643;DHT22;39546;45.534;12.048;2022-07-01T23:32:56;27.40;68.50
53643;DHT22;39546;45.534;12.048;2022-07-01T23:38:59;27.30;68.50
53643;DHT22;39546;45.534;12.048;2022-07-01T23:45:01;27.20;68.80
53643;DHT22;39546;45.534;12.048;2022-07-01T23:51:04;27.10;68.90
53643;DHT22;39546;45.534;12.048;2022-07-01T23:57:06;27.00;69.00
